Array
(
    [0] => p
    [1] => TAF-100
)
বাংলা English Search

**Light to moderate Rain/T. Showers accompanied by tempo. gusty wind is likely to occur at many places over Rangpur division; at a few places over Dhaka, Mymensingh, Sylhet & Chattogram divisions and at one/two places over Khulna, Barishal and Rajshahi divisions over the country. **

TAF

TAF VGHS 100500Z 1006/1112 16006KT 4000HZ SCT012 BKN100
TEMPO 1008/1014 18025KT 2000RA/TSRA BKN007 FEW025CB  OVC090
BECMG 1018/1020 18009KT TEMPO 1020/1112 18025KT 2000RA/TSRA
BKN007 FEW025CB OVC090=

TAF VGEG 100500Z 1006/1112 18010KTS 5000 HZ SCT020 BKN100
  BECMG 1020/1022 16008KT 4000 DZ/-RA SCT016 BKN100
  BECMG 1100/1102 17008KT 4500 HZ SCT022 BKN100
  BECMG 1109/1111 8010KT 4000 DZ/-RA SCT018 BKN100=
 


TAF VGSY 100400Z 1006/1112 12005KT 4000HZ SCT015 BKN100
 BECMG 1023/1101 06005KT 3000HZ SCT012 BKN100
BECMG 1103/1105 09005KT 3500HZ SCT015 BKN100
TEMPO 1006/1106 18020KT 2000 RA/TSRA BKN007 FEW025CB OVC 090= .

Download Refresh Full Screen
    http://live3.bmd.gov.bd/p/TAF-100/